Pagina principale
METAR-TAF:

METAR-TAF

Aeroporti :

Aeroporto di Lugano-Agno

Lugano, Svizzera

latitudine: 46-00N, longitudine: 008-58E, altezza: 273 m

Osservazione

Il bollettino è stato emesso 10 minuti fa, alle 11:20 UTC
Vento 6 kt da sud
Temperature 26°C
Umidità 45%
Pressione 1026 hPa
Visibilità 10 km o più
Poco nuvoloso ad un'altezza di 6500 ft

METAR: LSZA 191120Z 19006KT 9999 FEW065 26/13 Q1026 NOSIG

Ora: 13:30 (11:30 UTC)

Previsione

Il bollettino è stato emesso 3 ore e 5 minuti fa, alle 08:25 UTC
Previsione valida dal 19 alle 09 UTC al 19 alle 18 UTC
Vento 7 kt da sud
Visibilità 10 km o più
Poco nuvoloso ad un'altezza di 7000 ft
Evoluzione graduale
dal 19 alle 12 UTC al 19 alle 15 UTC
Nubi sparse ad un'altezza di 9000 ft, Cumulo congesto.

TAF: LSZA 190825Z 1909/1918 18007KT 9999 FEW070 BECMG 1912/1915 SCT090TCU

Osservazioni e previsioni meteorologiche di più di 4000 aeroporti (messaggi METAR e TAF).

Le stazioni disponibili sono rappresentate dai dischi gialli e rossi sulla carta.

Puntare il mouse per vedere il nome della stazione.

Clicca sopra per visualizzare le osservazioni e previsioni meteorologiche.

Per cambiare la mappa : fare clic sui pulsanti verdi con una croce nera per ingrandire, il pulsante verde con un trattino per diminuire, o sulla freccia verde per le mappe adiacenti.


METAR-TAF: